Overview Statistics Trail Chart Weather Telemetry Raw packets
 

This is the latest recevied weather packets stored in our database for station/object K8CWG. If no packets are shown the sender has not sent any weather packets the latest 10 day(s).

<< 10 11 12 13 14 15 >>
Time Temp. Humidity Pressure Rain* Wind** Luminosity Snow
1787846402 27.22° C 67% 1012.8 hPa 0 mm - - -
1787842803 26.11° C 73% 1012.9 hPa 0 mm - - -
1787839203 23.89° C 83% 1012.6 hPa 0 mm - - -
1787835602 21.11° C 90% 1012.7 hPa 0 mm - - -
1787832003 19.44° C 96% 1012.3 hPa 0 mm - - -
1787828402 18.33° C 95% 1011.5 hPa 0 mm - - -
1787824802 18.89° C 94% 1011.3 hPa 0 mm - - -
1787821201 19.44° C 90% 1011.3 hPa 0 mm - - -
1787817604 20° C 88% 1011.3 hPa 0 mm - - -
1787814009 20.56° C 87% 1010.9 hPa 0 mm - - -
1787810402 21.11° C 84% 1011.2 hPa 0 mm - - -
1787806802 22.78° C 78% 1011.8 hPa 0 mm - - -
1787805002 22.78° C 77% 1011.8 hPa 0 mm - - -
1787804101 22.78° C 77% 1011.8 hPa 0 mm - - -
1787803204 22.78° C 75% 1011.6 hPa 0 mm - - -
1787799605 22.78° C 74% 1011.4 hPa 0 mm - - -
1787796006 22.78° C 75% 1012 hPa 0 mm - - -
1787792402 23.89° C 74% 1011.4 hPa 0 mm - - -
1787788808 25° C 69% 1011.4 hPa 0 mm - - -
1787785203 27.22° C 63% 1011.1 hPa 0 mm - - -
1787781606 28.33° C 58% 1011.2 hPa 0 mm - - -
1787779800 28.33° C 58% 1011.5 hPa 0 mm - - -
1787778006 29.44° C 57% 1011.9 hPa 0 mm - - -
1787774407 28.89° C 57% 1012.5 hPa 0 mm - - -
1787773503 28.89° C 58% 1012.7 hPa 0 mm - - -

* Rain latest hour (hover to see other rain measurements)
** Current wind speed in m/s (hover to see current wind gust speed)